Time;durP1;ratioP1;P1;durP2;ratioP2;P2;SDS_P1;SDS_P2;PMS_P1;PMS_P2;Temp;Humidity;BMP_temperature;BMP_pressure;BME280_temperature;BME280_humidity;BME280_pressure;Samples;Min_cycle;Max_cycle;Signal;HPM_P1;HPM_P2
2022/11/29 00:00:44;;;;;;;29.20;19.55;;;22.60;40.90;;;;;;7713073;22;83098;-66
2022/11/29 00:03:44;;;;;;;29.52;19.67;;;22.60;40.10;;;;;;7711294;22;83883;-60
2022/11/29 00:06:45;;;;;;;29.02;19.55;;;22.50;40.10;;;;;;7709071;22;83330;-62
2022/11/29 00:09:45;;;;;;;28.88;19.23;;;22.60;40.10;;;;;;7711985;22;83193;-62
2022/11/29 00:12:46;;;;;;;29.33;19.48;;;22.50;40.00;;;;;;7710979;22;83229;-60
2022/11/29 00:15:47;;;;;;;29.38;18.73;;;22.50;40.10;;;;;;7706444;22;83333;-62
2022/11/29 00:18:47;;;;;;;31.05;20.38;;;22.50;40.20;;;;;;7711147;22;82919;-62
2022/11/29 00:21:48;;;;;;;30.92;19.98;;;22.50;40.00;;;;;;7707159;22;83182;-66
2022/11/29 00:24:48;;;;;;;29.17;19.80;;;22.50;40.00;;;;;;7707730;22;84944;-65
2022/11/29 00:27:50;;;;;;;29.63;20.48;;;22.50;40.00;;;;;;7704352;22;83609;-67
2022/11/29 00:30:50;;;;;;;29.10;19.08;;;22.50;40.00;;;;;;7681875;22;85709;-67
2022/11/29 00:33:51;;;;;;;30.27;20.13;;;22.50;40.10;;;;;;7710649;22;83077;-66
2022/11/29 00:36:51;;;;;;;29.73;19.67;;;22.50;40.00;;;;;;7712790;22;84153;-65
2022/11/29 00:39:52;;;;;;;32.70;20.40;;;22.50;40.10;;;;;;7710289;22;83433;-66
2022/11/29 00:42:52;;;;;;;27.08;18.45;;;22.50;40.00;;;;;;7711885;22;84772;-66
2022/11/29 00:45:53;;;;;;;31.70;19.95;;;22.40;40.00;;;;;;7713482;22;83696;-66
2022/11/29 00:48:53;;;;;;;29.52;19.20;;;22.40;40.00;;;;;;7709623;22;82899;-66
2022/11/29 00:51:54;;;;;;;30.20;20.08;;;22.40;39.80;;;;;;7711614;22;83144;-65
2022/11/29 00:54:54;;;;;;;31.23;20.20;;;22.40;39.80;;;;;;7710419;22;84141;-66
2022/11/29 00:57:55;;;;;;;30.58;21.02;;;22.40;39.80;;;;;;7714050;22;84072;-67
2022/11/29 01:00:55;;;;;;;25.55;18.42;;;22.40;39.90;;;;;;7713066;22;84563;-67
2022/11/29 01:03:56;;;;;;;26.55;18.50;;;22.40;39.80;;;;;;7711675;22;82888;-68
2022/11/29 01:06:56;;;;;;;28.30;19.38;;;22.40;39.80;;;;;;7709814;22;83467;-68
2022/11/29 01:09:57;;;;;;;30.20;19.98;;;22.40;39.80;;;;;;7711671;22;84295;-68
2022/11/29 01:12:57;;;;;;;27.77;18.48;;;22.40;39.70;;;;;;7711557;22;83165;-68
2022/11/29 01:15:58;;;;;;;28.90;19.45;;;22.40;39.60;;;;;;7709390;22;83155;-69
2022/11/29 01:18:59;;;;;;;26.63;18.42;;;22.40;39.50;;;;;;7711009;22;83748;-69
2022/11/29 01:21:59;;;;;;;25.83;17.75;;;22.40;39.50;;;;;;7713621;22;83075;-68
2022/11/29 01:25:00;;;;;;;29.50;19.05;;;22.40;39.50;;;;;;7710640;22;83838;-69
2022/11/29 01:28:00;;;;;;;26.80;18.42;;;22.40;39.50;;;;;;7712468;22;84143;-68
2022/11/29 01:31:01;;;;;;;28.30;18.02;;;22.40;39.50;;;;;;7710922;22;83388;-68
2022/11/29 01:34:01;;;;;;;27.52;18.83;;;22.40;39.50;;;;;;7711816;22;83111;-66
2022/11/29 01:37:02;;;;;;;25.85;17.50;;;22.40;39.50;;;;;;7710775;22;83496;-65
2022/11/29 01:40:02;;;;;;;29.70;18.08;;;22.40;39.30;;;;;;7711338;22;88863;-70
2022/11/29 01:43:03;;;;;;;27.50;18.70;;;22.40;39.40;;;;;;7712944;22;84807;-69
2022/11/29 01:46:03;;;;;;;28.45;18.88;;;22.40;39.30;;;;;;7712793;22;82979;-70
2022/11/29 01:49:04;;;;;;;22.92;17.27;;;22.40;39.20;;;;;;7715606;22;83785;-69
2022/11/29 01:52:04;;;;;;;26.25;17.92;;;22.40;39.30;;;;;;7685265;22;85173;-69
2022/11/29 01:55:04;;;;;;;25.65;17.63;;;22.40;39.20;;;;;;7712699;22;83424;-64
2022/11/29 01:58:05;;;;;;;25.00;17.05;;;22.30;39.40;;;;;;7713529;22;84094;-65
2022/11/29 02:01:05;;;;;;;25.20;17.00;;;22.40;39.40;;;;;;7712228;22;84487;-67
2022/11/29 02:04:06;;;;;;;26.88;18.30;;;22.40;39.30;;;;;;7711689;22;83211;-65
2022/11/29 02:07:06;;;;;;;25.92;18.23;;;22.40;39.50;;;;;;7712016;22;84136;-66
2022/11/29 02:10:07;;;;;;;26.08;17.92;;;22.40;39.40;;;;;;7712065;22;83485;-67
2022/11/29 02:13:07;;;;;;;27.70;18.90;;;22.30;39.40;;;;;;7706760;22;83395;-67
2022/11/29 02:16:08;;;;;;;26.88;17.80;;;22.30;39.40;;;;;;7709764;22;83076;-66
2022/11/29 02:19:08;;;;;;;25.75;17.67;;;22.30;39.30;;;;;;7709805;22;82986;-66
2022/11/29 02:22:09;;;;;;;31.48;19.83;;;22.20;39.20;;;;;;7682874;22;83213;-66
2022/11/29 02:25:09;;;;;;;29.95;18.65;;;22.30;39.30;;;;;;7709487;22;84160;-66
2022/11/29 02:28:10;;;;;;;27.92;18.38;;;22.30;39.40;;;;;;7710656;22;83808;-65
2022/11/29 02:31:10;;;;;;;26.38;18.08;;;22.20;39.20;;;;;;7708305;22;82888;-59
2022/11/29 02:34:11;;;;;;;27.95;18.67;;;22.20;39.20;;;;;;7712449;22;83093;-60
2022/11/29 02:37:11;;;;;;;27.38;18.67;;;22.20;39.20;;;;;;7658589;22;83992;-60
2022/11/29 02:40:12;;;;;;;29.00;18.98;;;22.20;39.20;;;;;;7710367;22;83077;-60
2022/11/29 02:43:12;;;;;;;27.30;18.30;;;22.30;39.20;;;;;;7711377;22;85214;-61
2022/11/29 02:46:13;;;;;;;28.67;19.67;;;22.20;39.00;;;;;;7711528;22;82854;-61
2022/11/29 02:49:13;;;;;;;28.75;18.80;;;22.30;39.90;;;;;;7712139;22;83048;-61
2022/11/29 02:52:14;;;;;;;29.52;18.95;;;22.20;39.00;;;;;;7710329;22;82971;-62
2022/11/29 02:55:14;;;;;;;26.13;18.08;;;22.30;39.00;;;;;;7710507;22;82956;-60
2022/11/29 02:58:15;;;;;;;26.60;19.02;;;22.30;39.00;;;;;;7714111;22;82807;-61
2022/11/29 03:01:15;;;;;;;25.42;17.17;;;22.30;39.00;;;;;;7711499;22;83123;-60
2022/11/29 03:04:15;;;;;;;27.35;17.98;;;22.30;39.10;;;;;;7713140;22;82869;-59
2022/11/29 03:07:16;;;;;;;28.05;18.05;;;22.30;39.10;;;;;;7713057;22;83385;-61
2022/11/29 03:10:17;;;;;;;29.17;19.20;;;22.30;39.20;;;;;;7710841;22;83330;-61
2022/11/29 03:13:17;;;;;;;28.15;18.45;;;22.30;39.20;;;;;;7711412;22;83531;-61
2022/11/29 03:16:18;;;;;;;27.38;18.10;;;22.30;39.10;;;;;;7711830;22;82835;-61
2022/11/29 03:19:18;;;;;;;26.00;17.38;;;22.30;39.10;;;;;;7713032;22;82882;-61
2022/11/29 03:22:19;;;;;;;27.45;17.85;;;22.20;39.10;;;;;;7708333;22;82928;-62
2022/11/29 03:25:19;;;;;;;27.73;18.00;;;22.30;39.20;;;;;;7687383;22;83313;-65
2022/11/29 03:28:20;;;;;;;26.52;18.05;;;22.30;39.10;;;;;;7711677;22;82964;-66
2022/11/29 03:31:20;;;;;;;26.85;18.23;;;22.30;39.20;;;;;;7711965;22;82971;-66
2022/11/29 03:34:21;;;;;;;24.35;16.75;;;22.30;39.20;;;;;;7712374;22;82933;-66
2022/11/29 03:37:21;;;;;;;23.27;16.40;;;22.30;39.20;;;;;;7714366;22;83634;-66
2022/11/29 03:40:21;;;;;;;24.15;17.42;;;22.30;39.20;;;;;;7712194;22;84644;-66
2022/11/29 03:43:22;;;;;;;23.95;16.15;;;22.30;39.00;;;;;;7712483;22;83225;-65
2022/11/29 03:46:22;;;;;;;25.33;16.45;;;22.30;39.00;;;;;;7711054;22;83262;-65
2022/11/29 03:49:23;;;;;;;25.52;15.95;;;22.20;39.00;;;;;;7712252;22;83117;-64
2022/11/29 03:52:23;;;;;;;21.65;15.48;;;22.20;39.40;;;;;;7710737;22;84243;-67
2022/11/29 03:55:24;;;;;;;22.58;15.98;;;22.20;39.50;;;;;;7686251;22;83391;-66
2022/11/29 03:58:24;;;;;;;24.05;15.93;;;22.20;39.50;;;;;;7710760;22;84904;-66
2022/11/29 04:01:25;;;;;;;22.38;15.32;;;22.20;39.50;;;;;;7710858;22;83229;-67
2022/11/29 04:04:25;;;;;;;21.55;15.30;;;22.10;39.50;;;;;;7712674;22;84399;-66
2022/11/29 04:07:26;;;;;;;23.38;15.38;;;22.20;39.60;;;;;;7711795;22;82918;-67
2022/11/29 04:10:26;;;;;;;20.70;15.00;;;22.10;39.60;;;;;;7709627;22;83227;-65
2022/11/29 04:13:28;;;;;;;24.35;16.55;;;22.10;39.60;;;;;;7710027;22;83868;-65
2022/11/29 04:16:30;;;;;;;23.42;15.73;;;22.10;39.40;;;;;;7708633;22;84194;-66
2022/11/29 04:19:31;;;;;;;25.08;16.10;;;22.20;39.20;;;;;;7707668;22;84066;-64
2022/11/29 04:22:31;;;;;;;26.05;17.13;;;22.20;38.60;;;;;;7707792;22;83068;-65
2022/11/29 04:25:31;;;;;;;23.98;16.20;;;22.30;38.50;;;;;;7711163;22;83118;-64
2022/11/29 04:28:32;;;;;;;25.60;17.00;;;22.40;38.20;;;;;;7705252;22;84800;-70
2022/11/29 04:31:32;;;;;;;24.30;16.58;;;22.40;38.10;;;;;;7708464;22;83034;-70
2022/11/29 04:34:33;;;;;;;27.35;16.33;;;22.50;38.30;;;;;;7708496;22;83415;-70
2022/11/29 04:37:33;;;;;;;31.33;16.42;;;22.60;38.60;;;;;;7707907;22;83088;-66
2022/11/29 04:40:34;;;;;;;35.17;16.35;;;22.60;38.80;;;;;;7705005;22;83148;-69
2022/11/29 04:43:34;;;;;;;44.13;17.25;;;22.70;38.90;;;;;;7707338;22;83395;-69
2022/11/29 04:46:35;;;;;;;26.13;16.05;;;22.70;38.60;;;;;;7706924;22;84299;-67
2022/11/29 04:49:35;;;;;;;25.25;14.95;;;22.70;38.70;;;;;;7708398;22;83266;-66
2022/11/29 04:52:36;;;;;;;23.17;14.77;;;22.80;38.90;;;;;;7710710;22;83201;-68
2022/11/29 04:55:36;;;;;;;25.67;15.05;;;22.80;38.80;;;;;;7706753;22;82857;-62
2022/11/29 04:58:37;;;;;;;23.23;15.32;;;22.90;38.90;;;;;;7707614;22;83605;-64
2022/11/29 05:01:37;;;;;;;24.70;15.93;;;22.90;39.00;;;;;;7708503;22;84329;-66
2022/11/29 05:04:38;;;;;;;26.48;16.33;;;23.00;39.10;;;;;;7706471;22;83114;-67
2022/11/29 05:07:38;;;;;;;27.58;17.27;;;23.00;39.20;;;;;;7706969;22;83801;-63
2022/11/29 05:10:38;;;;;;;27.75;17.33;;;23.00;39.30;;;;;;7652008;22;1229395;-73
2022/11/29 05:13:39;;;;;;;50.70;16.73;;;23.10;39.10;;;;;;7707935;22;83234;-70
2022/11/29 05:16:39;;;;;;;27.30;16.65;;;23.10;39.20;;;;;;7705051;22;83502;-68
2022/11/29 05:19:40;;;;;;;29.55;16.98;;;23.10;39.30;;;;;;7710036;22;83681;-60
2022/11/29 05:22:40;;;;;;;29.20;17.85;;;23.10;39.00;;;;;;7710537;22;83320;-62
2022/11/29 05:25:41;;;;;;;28.90;16.85;;;23.10;38.80;;;;;;7712084;22;83262;-62
2022/11/29 05:28:41;;;;;;;27.33;16.52;;;23.10;38.40;;;;;;7710879;22;82992;-65
2022/11/29 05:31:42;;;;;;;28.38;16.55;;;23.20;38.30;;;;;;7711416;22;83603;-64
2022/11/29 05:34:42;;;;;;;26.58;16.40;;;23.20;38.10;;;;;;7710629;22;83651;-66
2022/11/29 05:37:43;;;;;;;34.80;16.73;;;23.20;38.50;;;;;;7713184;22;83127;-62
2022/11/29 05:40:43;;;;;;;25.85;16.65;;;23.20;38.50;;;;;;7711282;22;83224;-62
2022/11/29 05:43:44;;;;;;;27.45;16.45;;;23.20;38.10;;;;;;7710718;22;82786;-64
2022/11/29 05:46:45;;;;;;;24.83;16.60;;;23.20;38.80;;;;;;7706986;22;83665;-63
2022/11/29 05:49:45;;;;;;;23.75;15.25;;;23.20;38.60;;;;;;7679091;22;84319;-61
2022/11/29 05:52:46;;;;;;;24.98;16.00;;;23.20;38.20;;;;;;7713412;22;83531;-64
2022/11/29 05:55:46;;;;;;;26.98;15.82;;;23.30;38.80;;;;;;7707960;22;83315;-62
2022/11/29 05:58:46;;;;;;;26.90;15.50;;;23.20;38.60;;;;;;7712603;22;83311;-66
2022/11/29 06:01:47;;;;;;;20.40;14.32;;;23.30;38.20;;;;;;7710463;22;85608;-65
2022/11/29 06:04:48;;;;;;;25.35;14.32;;;23.30;38.30;;;;;;7678072;22;83195;-65
2022/11/29 06:07:48;;;;;;;28.80;15.13;;;23.30;38.20;;;;;;7706316;22;84650;-66
2022/11/29 06:10:48;;;;;;;26.00;15.60;;;23.30;38.20;;;;;;7706527;22;83305;-61
2022/11/29 06:13:49;;;;;;;25.75;16.10;;;23.30;38.10;;;;;;7705420;22;84226;-59
2022/11/29 06:16:50;;;;;;;27.20;16.25;;;23.20;37.90;;;;;;7708656;22;83570;-61
2022/11/29 06:19:52;;;;;;;28.40;16.02;;;23.20;37.80;;;;;;7710979;22;84622;-61
2022/11/29 06:22:52;;;;;;;24.15;15.05;;;23.20;37.60;;;;;;7706820;22;83840;-60
2022/11/29 06:25:55;;;;;;;22.23;14.60;;;23.20;37.40;;;;;;7705655;22;83591;-59
2022/11/29 06:28:56;;;;;;;21.17;14.75;;;23.10;37.90;;;;;;7711946;22;83539;-60
2022/11/29 06:31:57;;;;;;;24.08;13.65;;;23.00;38.00;;;;;;7710970;22;82810;-59
2022/11/29 06:34:58;;;;;;;26.27;15.52;;;23.00;38.50;;;;;;7710565;22;83846;-59
2022/11/29 06:37:58;;;;;;;34.58;15.85;;;22.90;38.50;;;;;;7709555;22;82962;-60
2022/11/29 06:40:59;;;;;;;25.92;16.00;;;22.90;39.30;;;;;;7712826;22;83134;-63
2022/11/29 06:43:59;;;;;;;23.35;14.65;;;22.90;39.70;;;;;;7708415;22;83946;-61
2022/11/29 06:46:59;;;;;;;23.00;16.13;;;22.90;40.90;;;;;;7710616;22;83581;-62
2022/11/29 06:50:00;;;;;;;25.83;15.75;;;22.90;40.20;;;;;;7710582;22;83457;-62
2022/11/29 06:53:00;;;;;;;22.65;15.18;;;22.80;39.90;;;;;;7711052;22;83098;-61
2022/11/29 06:56:01;;;;;;;25.80;15.13;;;22.80;39.70;;;;;;7680818;22;84185;-60
2022/11/29 06:59:01;;;;;;;26.17;15.98;;;22.80;39.60;;;;;;7587091;22;84636;-61
2022/11/29 07:02:02;;;;;;;25.60;16.58;;;22.70;39.20;;;;;;7569703;22;83581;-60
2022/11/29 07:05:03;;;;;;;27.00;16.50;;;22.60;40.30;;;;;;7356106;22;85791;-59
2022/11/29 07:08:03;;;;;;;26.08;16.23;;;22.70;40.10;;;;;;7692430;22;85032;-60
2022/11/29 07:11:04;;;;;;;24.42;15.05;;;22.60;39.80;;;;;;7708174;22;83601;-60
2022/11/29 07:14:04;;;;;;;22.10;14.75;;;22.60;40.20;;;;;;7709041;22;83452;-60
2022/11/29 07:17:05;;;;;;;24.92;15.80;;;22.50;40.40;;;;;;7707079;22;83974;-61
2022/11/29 07:20:06;;;;;;;26.05;16.10;;;22.50;40.70;;;;;;7707993;22;82962;-65
2022/11/29 07:23:07;;;;;;;23.40;15.02;;;22.50;40.20;;;;;;7711704;22;83328;-68
2022/11/29 07:26:07;;;;;;;24.92;15.68;;;22.40;40.50;;;;;;7709713;22;83934;-63
2022/11/29 07:29:09;;;;;;;26.75;15.95;;;22.40;40.50;;;;;;7712102;22;83402;-68
2022/11/29 07:32:09;;;;;;;24.73;14.30;;;22.40;40.60;;;;;;7711040;22;83164;-65
2022/11/29 07:35:10;;;;;;;26.25;15.77;;;22.40;41.20;;;;;;7712132;22;83643;-66
2022/11/29 07:38:10;;;;;;;23.77;15.10;;;22.40;41.30;;;;;;7708621;22;83413;-65
2022/11/29 07:41:11;;;;;;;24.73;15.93;;;22.30;41.20;;;;;;7710158;22;83443;-66
2022/11/29 07:44:11;;;;;;;27.33;16.58;;;22.30;41.10;;;;;;7709946;22;82967;-67
2022/11/29 07:47:12;;;;;;;23.60;14.63;;;22.30;41.20;;;;;;7712649;22;84423;-67
2022/11/29 07:50:12;;;;;;;24.17;13.73;;;22.30;41.40;;;;;;7708850;22;83185;-66
2022/11/29 07:53:13;;;;;;;27.08;16.00;;;22.30;41.50;;;;;;7710218;22;82955;-62
2022/11/29 07:56:15;;;;;;;26.35;15.23;;;22.30;41.80;;;;;;7712226;22;83200;-69
2022/11/29 07:59:15;;;;;;;25.90;15.55;;;22.30;42.50;;;;;;7712343;22;83762;-68
2022/11/29 08:02:16;;;;;;;28.25;14.55;;;22.30;43.00;;;;;;7708510;22;83141;-67
2022/11/29 08:05:16;;;;;;;25.83;14.77;;;22.20;42.80;;;;;;7709990;22;84665;-68
2022/11/29 08:08:17;;;;;;;27.60;15.05;;;22.30;43.40;;;;;;7709186;22;84868;-66
2022/11/29 08:11:17;;;;;;;22.73;14.65;;;22.30;43.40;;;;;;7689082;22;83500;-68
2022/11/29 08:14:17;;;;;;;23.80;14.25;;;22.30;43.70;;;;;;7698441;22;87510;-67
2022/11/29 08:17:18;;;;;;;20.88;13.88;;;22.30;43.80;;;;;;7709966;22;83192;-67
2022/11/29 08:20:18;;;;;;;21.90;13.52;;;22.20;43.70;;;;;;7711155;22;82963;-66
2022/11/29 08:23:19;;;;;;;17.17;12.18;;;22.20;44.00;;;;;;7710752;22;83841;-65
2022/11/29 08:26:19;;;;;;;20.52;11.88;;;22.20;44.00;;;;;;7708772;22;83138;-66
2022/11/29 08:29:20;;;;;;;16.85;10.75;;;22.20;43.90;;;;;;7707132;22;83872;-66
2022/11/29 08:32:20;;;;;;;20.10;10.90;;;22.20;44.10;;;;;;7712048;22;83591;-66
2022/11/29 08:35:21;;;;;;;18.98;11.00;;;22.20;43.70;;;;;;7711299;22;83254;-65
2022/11/29 08:38:21;;;;;;;19.02;12.40;;;22.30;43.30;;;;;;7708058;22;84025;-72
2022/11/29 08:41:22;;;;;;;19.25;12.10;;;22.30;43.00;;;;;;7708573;22;83485;-68
2022/11/29 08:44:22;;;;;;;18.02;12.07;;;22.40;42.70;;;;;;7709255;22;84943;-67
2022/11/29 08:47:35;;;;;;;19.95;13.02;;;22.40;42.60;;;;;;7710396;22;82989;-68
2022/11/29 08:50:36;;;;;;;22.50;12.95;;;22.50;43.10;;;;;;7709374;22;83203;-67
2022/11/29 08:53:44;;;;;;;19.70;12.98;;;22.50;42.30;;;;;;7708550;22;83191;-66
2022/11/29 08:56:45;;;;;;;21.15;14.02;;;22.60;42.30;;;;;;7711158;22;83254;-66
2022/11/29 08:59:46;;;;;;;18.45;12.68;;;22.60;42.20;;;;;;7656392;22;85120;-67
2022/11/29 09:02:46;;;;;;;20.30;13.43;;;22.70;42.10;;;;;;7708071;22;83559;-68
2022/11/29 09:05:47;;;;;;;16.83;12.05;;;22.70;41.90;;;;;;7708428;22;83352;-71
2022/11/29 09:08:47;;;;;;;19.80;13.18;;;22.70;41.80;;;;;;7709431;22;89122;-67
2022/11/29 09:11:48;;;;;;;18.73;12.43;;;22.70;41.60;;;;;;7702953;22;83336;-67
2022/11/29 09:14:48;;;;;;;16.88;12.27;;;22.70;41.60;;;;;;7709863;22;82923;-65
2022/11/29 09:17:49;;;;;;;18.83;12.55;;;22.70;41.50;;;;;;7707508;22;82924;-65
2022/11/29 09:20:49;;;;;;;16.25;11.50;;;22.80;41.50;;;;;;7709723;22;83824;-66
2022/11/29 09:23:56;;;;;;;17.50;11.68;;;22.80;41.30;;;;;;7676078;22;84339;-65
2022/11/29 09:26:57;;;;;;;16.38;11.50;;;22.80;41.30;;;;;;7711962;22;83941;-64
2022/11/29 09:29:58;;;;;;;18.85;11.93;;;22.80;41.10;;;;;;7709422;22;88837;-64
2022/11/29 09:32:59;;;;;;;17.20;11.60;;;22.80;41.00;;;;;;7709574;22;84359;-66
2022/11/29 09:35:59;;;;;;;15.20;10.98;;;22.80;40.90;;;;;;7681025;22;83188;-68
2022/11/29 09:39:01;;;;;;;15.25;10.70;;;22.80;40.60;;;;;;7711096;22;83733;-67
2022/11/29 09:42:02;;;;;;;17.10;11.40;;;22.90;40.70;;;;;;7710016;22;83422;-67
2022/11/29 09:45:02;;;;;;;17.45;11.38;;;22.90;40.60;;;;;;7709052;22;84196;-67
2022/11/29 09:48:03;;;;;;;16.73;11.57;;;22.90;40.40;;;;;;7708411;22;83449;-69
2022/11/29 09:51:04;;;;;;;16.95;11.85;;;22.90;40.40;;;;;;7707357;22;83110;-66
2022/11/29 09:54:04;;;;;;;19.05;11.57;;;22.90;40.30;;;;;;7710407;22;83978;-66
2022/11/29 09:57:04;;;;;;;15.45;11.40;;;22.90;40.20;;;;;;7708090;22;83858;-66
2022/11/29 10:00:05;;;;;;;16.90;12.55;;;22.90;40.00;;;;;;7700180;22;83519;-63
2022/11/29 10:03:06;;;;;;;17.50;12.10;;;22.90;40.10;;;;;;7680308;22;84088;-64
2022/11/29 10:06:06;;;;;;;16.42;11.88;;;22.90;39.90;;;;;;7709191;22;83421;-64
2022/11/29 10:09:07;;;;;;;19.10;11.70;;;23.00;39.90;;;;;;7708779;22;84277;-65
2022/11/29 10:12:07;;;;;;;19.35;12.45;;;22.90;39.80;;;;;;7710252;22;83212;-67
2022/11/29 10:15:08;;;;;;;17.40;11.68;;;22.90;39.70;;;;;;7709433;22;83052;-73
2022/11/29 10:18:08;;;;;;;15.13;11.10;;;22.90;39.90;;;;;;7705948;22;83363;-71
2022/11/29 10:21:09;;;;;;;16.40;11.18;;;22.90;40.20;;;;;;7710572;22;83629;-70
2022/11/29 10:24:09;;;;;;;13.55;10.35;;;22.90;40.20;;;;;;7708278;22;83431;-70
2022/11/29 10:27:10;;;;;;;14.82;11.15;;;22.90;40.20;;;;;;7698067;22;83035;-69
2022/11/29 10:30:10;;;;;;;13.82;10.98;;;22.90;39.90;;;;;;7705015;22;83669;-68
2022/11/29 10:33:11;;;;;;;15.50;11.18;;;22.90;40.00;;;;;;7704046;22;83359;-68
2022/11/29 10:36:11;;;;;;;17.58;12.20;;;22.80;40.00;;;;;;7708874;22;83125;-67
2022/11/29 10:39:12;;;;;;;15.73;10.63;;;22.80;40.00;;;;;;7708428;22;83435;-67
2022/11/29 10:42:47;;;;;;;16.48;11.82;;;22.80;40.40;;;;;;7712051;22;83176;-67
2022/11/29 10:45:33;;;;;;;15.07;10.80;;;22.80;40.00;;;;;;7711286;22;84461;-65
2022/11/29 10:48:34;;;;;;;15.75;11.32;;;22.80;40.20;;;;;;7710374;22;83076;-65
2022/11/29 10:51:34;;;;;;;16.63;11.18;;;22.70;40.30;;;;;;7681044;22;84794;-65
2022/11/29 10:54:35;;;;;;;17.23;11.73;;;22.70;40.60;;;;;;7708825;22;82740;-64
2022/11/29 10:57:35;;;;;;;15.63;11.18;;;22.70;39.90;;;;;;7712200;22;82996;-65
2022/11/29 11:00:36;;;;;;;16.77;10.93;;;22.70;40.20;;;;;;7706682;22;82976;-66
2022/11/29 11:03:36;;;;;;;16.08;10.98;;;22.60;40.30;;;;;;7681460;22;83255;-66
2022/11/29 11:06:37;;;;;;;15.77;10.68;;;22.60;40.30;;;;;;7682025;22;84124;-66
2022/11/29 11:09:37;;;;;;;15.73;11.55;;;22.60;40.40;;;;;;7691605;22;90094;-65
2022/11/29 11:12:38;;;;;;;16.38;11.95;;;22.60;40.30;;;;;;7645638;22;84716;-64
2022/11/29 11:15:38;;;;;;;18.98;11.90;;;22.60;40.30;;;;;;7634487;22;83820;-65
2022/11/29 11:18:39;;;;;;;17.60;11.57;;;22.50;40.20;;;;;;7635414;22;82921;-65
2022/11/29 11:21:39;;;;;;;15.00;11.50;;;22.50;40.20;;;;;;7630815;22;82786;-61
2022/11/29 11:24:40;;;;;;;17.40;11.68;;;22.50;40.40;;;;;;7630010;22;83847;-61
2022/11/29 11:27:40;;;;;;;16.48;10.82;;;22.50;41.60;;;;;;7632900;22;83138;-60
2022/11/29 11:30:41;;;;;;;14.68;9.68;;;22.40;42.30;;;;;;7632592;22;83397;-60
2022/11/29 11:33:41;;;;;;;13.93;9.20;;;22.40;43.30;;;;;;7636285;22;82274;-61
2022/11/29 11:36:42;;;;;;;12.65;9.13;;;22.40;43.80;;;;;;7636189;22;81604;-62
2022/11/29 11:39:42;;;;;;;15.30;10.43;;;22.40;44.20;;;;;;7635943;22;80996;-60
2022/11/29 11:42:43;;;;;;;12.40;8.88;;;22.40;44.20;;;;;;7633166;22;84449;-62
2022/11/29 11:45:43;;;;;;;14.32;9.00;;;22.40;44.40;;;;;;7636586;22;83362;-61
2022/11/29 11:48:45;;;;;;;13.70;8.65;;;22.40;44.20;;;;;;7638032;22;81857;-62
2022/11/29 11:51:45;;;;;;;11.38;8.88;;;22.40;44.80;;;;;;7640113;22;80468;-62
2022/11/29 11:54:46;;;;;;;12.25;8.90;;;22.30;44.60;;;;;;7641408;22;80379;-62
2022/11/29 11:57:47;;;;;;;10.60;8.00;;;22.30;45.00;;;;;;7642036;22;80270;-62
2022/11/29 12:00:47;;;;;;;13.90;8.13;;;22.30;44.80;;;;;;7639539;22;80868;-61
2022/11/29 12:03:48;;;;;;;12.20;8.75;;;22.20;45.10;;;;;;7639156;22;81212;-62
2022/11/29 12:06:49;;;;;;;12.02;8.63;;;22.30;45.10;;;;;;7641959;22;80467;-61
2022/11/29 12:09:49;;;;;;;10.82;7.80;;;22.20;45.30;;;;;;7639698;22;80008;-61
2022/11/29 12:12:50;;;;;;;10.85;7.90;;;22.20;45.10;;;;;;7669702;22;80537;-61
2022/11/29 12:15:50;;;;;;;10.60;7.65;;;22.20;44.80;;;;;;7678355;22;80474;-61
2022/11/29 12:18:51;;;;;;;11.52;7.85;;;22.20;44.60;;;;;;7677199;22;80085;-62
2022/11/29 12:21:51;;;;;;;9.63;7.13;;;22.20;44.80;;;;;;7678616;22;81078;-63
2022/11/29 12:24:52;;;;;;;10.70;7.65;;;22.20;45.10;;;;;;7677077;22;80343;-64
2022/11/29 12:27:52;;;;;;;10.07;7.68;;;22.30;45.40;;;;;;7677725;22;80485;-64
2022/11/29 12:30:53;;;;;;;10.10;7.30;;;22.20;45.30;;;;;;7677940;22;80086;-63
2022/11/29 12:33:53;;;;;;;11.15;7.90;;;22.20;45.60;;;;;;7679959;22;80568;-63
2022/11/29 12:36:54;;;;;;;11.43;7.63;;;22.20;45.50;;;;;;7676461;22;80477;-61
2022/11/29 12:39:56;;;;;;;9.10;6.97;;;22.30;45.70;;;;;;7649927;22;82201;-60
2022/11/29 12:42:56;;;;;;;10.13;6.80;;;22.30;45.70;;;;;;7677726;22;81567;-59
2022/11/29 12:45:57;;;;;;;10.35;7.47;;;22.40;45.70;;;;;;7678396;22;80565;-60
2022/11/29 12:48:57;;;;;;;10.07;7.50;;;22.40;45.90;;;;;;7678516;22;81464;-60
2022/11/29 12:51:58;;;;;;;11.88;8.00;;;22.40;45.70;;;;;;7675680;22;82249;-60
2022/11/29 12:54:58;;;;;;;9.98;7.55;;;22.50;45.30;;;;;;7677188;22;80371;-63
2022/11/29 12:57:59;;;;;;;11.40;8.05;;;22.50;45.40;;;;;;7677443;22;80379;-64
2022/11/29 13:00:59;;;;;;;9.85;7.40;;;22.50;45.40;;;;;;7678193;22;80491;-64
2022/11/29 13:04:00;;;;;;;10.93;7.70;;;22.50;45.20;;;;;;7677474;22;80539;-63
2022/11/29 13:07:00;;;;;;;9.65;7.50;;;22.50;45.30;;;;;;7677369;22;80268;-64
2022/11/29 13:10:01;;;;;;;9.20;7.00;;;22.50;45.00;;;;;;7676463;22;80886;-64
2022/11/29 13:13:02;;;;;;;8.45;6.82;;;22.50;45.10;;;;;;7678464;22;80477;-74
2022/11/29 13:16:02;;;;;;;9.27;6.88;;;22.50;45.30;;;;;;7676205;22;80597;-71
2022/11/29 13:19:03;;;;;;;9.63;7.03;;;22.60;45.00;;;;;;7677743;22;80433;-72
2022/11/29 13:22:03;;;;;;;9.15;6.82;;;22.60;45.20;;;;;;7678169;22;80366;-74
2022/11/29 13:25:04;;;;;;;11.68;7.80;;;22.60;45.10;;;;;;7676705;22;82073;-73
2022/11/29 13:28:04;;;;;;;10.48;7.03;;;22.60;44.80;;;;;;7677587;22;80257;-73
2022/11/29 13:31:04;;;;;;;9.10;6.55;;;22.60;45.10;;;;;;7675804;22;80587;-60
2022/11/29 13:34:05;;;;;;;7.95;6.32;;;22.60;45.10;;;;;;7677102;22;81178;-61
2022/11/29 13:37:06;;;;;;;10.40;7.78;;;22.60;45.10;;;;;;7679380;22;81039;-61
2022/11/29 13:40:06;;;;;;;7.10;5.97;;;22.60;45.30;;;;;;7678512;22;80821;-62
2022/11/29 13:43:07;;;;;;;9.60;6.53;;;22.50;45.40;;;;;;7677907;22;80449;-61
2022/11/29 13:46:07;;;;;;;7.65;5.85;;;22.50;45.50;;;;;;7679751;22;84914;-61
2022/11/29 13:49:08;;;;;;;8.70;6.25;;;22.50;45.50;;;;;;7679259;22;80490;-60
2022/11/29 13:52:08;;;;;;;8.07;6.63;;;22.50;45.50;;;;;;7677420;22;80196;-60
2022/11/29 13:55:10;;;;;;;7.10;5.85;;;22.50;45.60;;;;;;7678780;22;80794;-60
2022/11/29 13:58:10;;;;;;;8.13;5.93;;;22.50;45.60;;;;;;7678537;22;80240;-61
2022/11/29 14:01:11;;;;;;;8.52;6.40;;;22.40;45.50;;;;;;7680872;22;80364;-60
2022/11/29 14:04:11;;;;;;;8.85;6.40;;;22.40;45.60;;;;;;7677631;22;80327;-60
2022/11/29 14:07:12;;;;;;;8.27;6.95;;;22.40;45.70;;;;;;7677889;22;80534;-66
2022/11/29 14:10:12;;;;;;;12.50;5.97;;;22.40;45.70;;;;;;7675811;22;81931;-74
2022/11/29 14:13:13;;;;;;;7.88;6.07;;;22.40;46.40;;;;;;7680162;22;80924;-72
2022/11/29 14:16:13;;;;;;;8.35;5.88;;;22.30;46.50;;;;;;7680597;22;80345;-65
2022/11/29 14:19:14;;;;;;;16.65;7.28;;;22.30;46.20;;;;;;7639375;22;80523;-69
2022/11/29 14:22:14;;;;;;;16.27;8.05;;;22.30;46.30;;;;;;7638818;22;80439;-71
2022/11/29 14:25:15;;;;;;;22.15;8.48;;;22.40;46.60;;;;;;7641497;22;80171;-72
2022/11/29 14:28:15;;;;;;;27.90;9.95;;;22.40;46.80;;;;;;7640159;22;82088;-69
2022/11/29 14:31:16;;;;;;;29.50;11.00;;;22.40;47.40;;;;;;7641357;22;80769;-66
2022/11/29 14:34:16;;;;;;;37.00;12.27;;;22.40;47.40;;;;;;7634722;22;83346;-67
2022/11/29 14:37:17;;;;;;;36.47;12.05;;;22.40;47.90;;;;;;7637258;22;83163;-67
2022/11/29 14:40:17;;;;;;;32.15;11.70;;;22.40;48.20;;;;;;7636721;22;83366;-68
2022/11/29 14:43:18;;;;;;;54.88;12.70;;;22.40;48.20;;;;;;7634742;22;83091;-67
2022/11/29 14:46:18;;;;;;;31.55;11.57;;;22.50;48.30;;;;;;7633492;22;84214;-61
2022/11/29 14:49:19;;;;;;;22.00;10.63;;;22.40;48.20;;;;;;7635190;22;83224;-61
2022/11/29 14:52:20;;;;;;;29.42;10.77;;;22.50;48.40;;;;;;7635203;22;82878;-62
2022/11/29 14:55:20;;;;;;;28.27;10.25;;;22.50;48.50;;;;;;7632163;22;83904;-60
2022/11/29 14:58:21;;;;;;;26.35;9.68;;;22.50;48.60;;;;;;7638386;22;83445;-61
2022/11/29 15:01:21;;;;;;;21.35;9.30;;;22.40;48.30;;;;;;7639379;22;82731;-61
2022/11/29 15:04:24;;;;;;;16.90;8.50;;;22.50;48.20;;;;;;7641536;22;80502;-66
2022/11/29 15:07:25;;;;;;;17.65;9.45;;;22.50;48.60;;;;;;7640033;22;80031;-65
2022/11/29 15:10:25;;;;;;;18.70;9.35;;;22.40;48.50;;;;;;7639047;22;80422;-68
2022/11/29 15:13:26;;;;;;;17.13;8.35;;;22.40;48.30;;;;;;7710011;22;80712;-67
2022/11/29 15:16:26;;;;;;;17.02;8.90;;;22.40;48.30;;;;;;7715982;22;80648;-67
2022/11/29 15:19:27;;;;;;;16.17;8.50;;;22.40;48.10;;;;;;7716111;22;80487;-69